createdAt,value
2024-03-02T00:00:54.292Z,25.88
2024-03-02T00:03:22.208Z,21.08
2024-03-02T00:05:53.672Z,21.67
2024-03-02T00:08:26.930Z,23.92
2024-03-02T00:10:59.637Z,18.95
2024-03-02T00:13:27.552Z,24.45
2024-03-02T00:15:57.421Z,18.48
2024-03-02T00:18:27.802Z,22.75
2024-03-02T00:20:57.227Z,22.73
2024-03-02T00:23:26.357Z,18.70
2024-03-02T00:25:56.862Z,18.73
2024-03-02T00:28:26.414Z,21.42
2024-03-02T00:31:06.777Z,18.15
2024-03-02T00:33:35.898Z,18.33
2024-03-02T00:36:04.292Z,20.27
2024-03-02T00:38:32.423Z,24.25
2024-03-02T00:41:01.449Z,20.75
2024-03-02T00:43:47.462Z,24.02
2024-03-02T00:46:18.729Z,21.38
2024-03-02T00:48:55.481Z,24.88
2024-03-02T00:51:24.299Z,25.13
2024-03-02T00:53:53.500Z,20.13
2024-03-02T00:56:21.502Z,24.00
2024-03-02T00:58:49.099Z,26.10
2024-03-02T01:01:18.246Z,21.83
2024-03-02T01:03:45.931Z,19.90
2024-03-02T01:06:14.038Z,22.67
2024-03-02T01:08:41.676Z,22.42
2024-03-02T01:11:09.641Z,22.05
2024-03-02T01:13:37.461Z,20.63
2024-03-02T01:16:06.241Z,28.10
2024-03-02T01:18:35.318Z,23.83
2024-03-02T01:21:02.983Z,24.60
2024-03-02T01:23:30.643Z,35.60
2024-03-02T01:25:58.232Z,45.22
2024-03-02T01:28:25.797Z,30.40
2024-03-02T01:30:53.457Z,44.10
2024-03-02T01:33:22.423Z,37.20
2024-03-02T01:35:51.387Z,21.92
2024-03-02T01:38:18.916Z,21.45
2024-03-02T01:40:46.591Z,20.55
2024-03-02T01:43:14.195Z,21.38
2024-03-02T01:45:41.831Z,31.35
2024-03-02T01:48:10.008Z,28.42
2024-03-02T01:50:39.052Z,28.67
2024-03-02T01:53:07.939Z,23.25
2024-03-02T01:55:35.840Z,31.63
2024-03-02T01:58:03.883Z,22.52
2024-03-02T02:00:31.853Z,27.17
2024-03-02T02:02:59.859Z,24.52
2024-03-02T02:05:27.410Z,23.63
2024-03-02T02:07:55.106Z,22.15
2024-03-02T02:10:23.943Z,19.55
2024-03-02T02:12:51.582Z,21.75
2024-03-02T02:15:27.051Z,17.45
2024-03-02T02:17:54.806Z,21.85
2024-03-02T02:20:22.343Z,21.27
2024-03-02T02:22:58.819Z,20.05
2024-03-02T02:25:26.841Z,22.67
2024-03-02T02:27:54.979Z,22.65
2024-03-02T02:30:24.232Z,22.58
2024-03-02T02:32:51.969Z,22.08
2024-03-02T02:35:19.687Z,24.67
2024-03-02T02:37:47.639Z,19.67
2024-03-02T02:40:17.254Z,22.08
2024-03-02T02:42:44.862Z,19.58
2024-03-02T02:45:14.297Z,16.67
2024-03-02T02:47:42.588Z,22.83
2024-03-02T02:50:10.857Z,22.95
2024-03-02T02:52:41.040Z,15.05
2024-03-02T02:55:09.987Z,20.15
2024-03-02T02:57:40.898Z,20.63
2024-03-02T03:00:15.098Z,19.95
2024-03-02T03:02:43.709Z,16.25
2024-03-02T03:05:13.250Z,16.08
2024-03-02T03:07:41.754Z,20.73
2024-03-02T03:10:10.017Z,21.63
2024-03-02T03:12:38.963Z,16.80
2024-03-02T03:15:08.191Z,20.75
2024-03-02T03:17:36.410Z,21.65
2024-03-02T03:20:05.259Z,21.35
2024-03-02T03:22:33.140Z,19.05
2024-03-02T03:25:00.978Z,19.38
2024-03-02T03:27:28.760Z,23.30
2024-03-02T03:29:57.696Z,16.42
2024-03-02T03:32:25.999Z,17.35
2024-03-02T03:34:53.673Z,17.40
2024-03-02T03:37:21.328Z,20.30
2024-03-02T03:39:49.070Z,16.08
2024-03-02T03:42:17.163Z,23.73
2024-03-02T03:44:44.760Z,20.55
2024-03-02T03:47:13.686Z,17.98
2024-03-02T03:49:41.255Z,20.48
2024-03-02T03:52:08.851Z,19.65
2024-03-02T03:54:38.244Z,17.90
2024-03-02T03:57:06.113Z,21.30
2024-03-02T03:59:34.233Z,21.98
2024-03-02T04:02:01.812Z,20.48
2024-03-02T04:04:31.104Z,18.08
2024-03-02T04:06:58.742Z,17.17
2024-03-02T04:09:26.723Z,17.25
2024-03-02T04:11:54.313Z,18.40
2024-03-02T04:14:21.886Z,19.02
2024-03-02T04:16:49.529Z,18.20
2024-03-02T04:19:17.124Z,18.42
2024-03-02T04:21:45.989Z,21.70
2024-03-02T04:24:13.563Z,23.23
2024-03-02T04:26:41.204Z,18.42
2024-03-02T04:29:08.911Z,20.27
2024-03-02T04:31:36.550Z,21.52
2024-03-02T04:34:04.320Z,23.92
2024-03-02T04:36:32.048Z,23.60
2024-03-02T04:39:00.902Z,24.35
2024-03-02T04:41:28.881Z,21.92
2024-03-02T04:43:56.914Z,18.90
2024-03-02T04:46:25.897Z,20.60
2024-03-02T04:48:56.918Z,17.33
2024-03-02T04:51:24.669Z,18.73
2024-03-02T04:53:52.273Z,20.10
2024-03-02T04:56:45.480Z,22.83
2024-03-02T05:01:40.701Z,20.63
2024-03-02T05:04:08.220Z,20.27
2024-03-02T05:06:35.832Z,23.52
2024-03-02T05:09:03.395Z,17.92
2024-03-02T05:11:57.645Z,17.83
2024-03-02T05:14:24.256Z,14.35
2024-03-02T05:16:51.821Z,19.73
2024-03-02T05:19:19.424Z,29.92
2024-03-02T05:21:47.031Z,16.30
2024-03-02T05:24:14.619Z,15.57
2024-03-02T05:26:43.457Z,24.73
2024-03-02T05:29:11.089Z,21.90
2024-03-02T05:31:38.622Z,21.63
2024-03-02T05:34:06.578Z,18.73
2024-03-02T05:36:34.212Z,17.27
2024-03-02T05:39:02.359Z,15.63
2024-03-02T05:41:29.904Z,19.83
2024-03-02T05:43:58.789Z,17.08
2024-03-02T05:46:26.327Z,15.60
2024-03-02T05:48:53.885Z,18.23
2024-03-02T05:51:21.515Z,15.77
2024-03-02T05:53:49.058Z,21.52
2024-03-02T05:56:16.610Z,23.58
2024-03-02T05:58:58.877Z,24.67
2024-03-02T06:01:29.868Z,25.65
2024-03-02T06:03:57.921Z,22.85
2024-03-02T06:06:25.685Z,20.52
2024-03-02T06:08:53.521Z,18.85
2024-03-02T06:11:21.712Z,20.10
2024-03-02T06:13:49.344Z,21.00
2024-03-02T06:16:16.928Z,20.58
2024-03-02T06:18:45.798Z,18.25
2024-03-02T06:21:13.422Z,18.63
2024-03-02T06:23:40.966Z,16.92
2024-03-02T06:26:08.690Z,14.88
2024-03-02T06:28:36.347Z,19.10
2024-03-02T06:31:04.308Z,18.05
2024-03-02T06:33:31.977Z,19.58
2024-03-02T06:36:00.847Z,19.17
2024-03-02T06:38:28.458Z,28.20
2024-03-02T06:40:56.217Z,44.13
2024-03-02T06:43:24.335Z,26.58
2024-03-02T06:45:52.003Z,23.38
2024-03-02T06:48:21.245Z,20.33
2024-03-02T06:50:49.088Z,22.60
2024-03-02T06:53:18.925Z,14.90
2024-03-02T06:58:14.238Z,26.88
2024-03-02T07:00:41.756Z,31.70
2024-03-02T07:03:09.437Z,24.10
2024-03-02T07:05:37.241Z,23.83
2024-03-02T07:08:06.286Z,21.33
2024-03-02T07:10:35.179Z,22.33
2024-03-02T07:13:02.961Z,22.92
2024-03-02T07:15:55.754Z,23.27
2024-03-02T07:18:23.369Z,26.58
2024-03-02T07:20:51.007Z,24.23
2024-03-02T07:23:18.646Z,23.50
2024-03-02T07:28:18.233Z,26.05
2024-03-02T07:30:45.772Z,26.05
2024-03-02T07:33:13.296Z,14.98
2024-03-02T07:35:40.824Z,22.45
2024-03-02T07:38:08.964Z,21.08
2024-03-02T07:40:36.521Z,20.05
2024-03-02T07:43:05.732Z,24.27
2024-03-02T07:45:33.288Z,20.17
2024-03-02T07:48:00.976Z,26.27
2024-03-02T07:50:28.566Z,24.50
2024-03-02T07:52:56.128Z,25.20
2024-03-02T07:55:24.905Z,21.60
2024-03-02T07:57:52.718Z,23.80
2024-03-02T08:00:21.791Z,27.00
2024-03-02T08:02:49.372Z,12.77
2024-03-02T08:05:17.017Z,8.32
2024-03-02T08:07:45.974Z,26.90
2024-03-02T08:10:13.931Z,23.25
2024-03-02T08:12:41.790Z,18.00
2024-03-02T08:15:09.819Z,20.00
2024-03-02T08:17:38.835Z,26.35
2024-03-02T08:20:09.151Z,26.98
2024-03-02T08:22:36.759Z,26.45
2024-03-02T08:25:04.740Z,21.60
2024-03-02T08:27:33.317Z,16.80
2024-03-02T08:30:00.961Z,26.02
2024-03-02T08:32:28.643Z,19.02
2024-03-02T08:34:57.564Z,24.40
2024-03-02T08:37:25.073Z,22.50
2024-03-02T08:39:52.692Z,14.80
2024-03-02T08:42:20.463Z,17.08
2024-03-02T08:44:48.022Z,21.13
2024-03-02T08:47:15.743Z,28.42
2024-03-02T08:49:43.327Z,30.58
2024-03-02T08:52:12.244Z,27.67
2024-03-02T08:54:39.915Z,20.25
2024-03-02T08:57:08.298Z,20.80
2024-03-02T08:59:36.110Z,23.25
2024-03-02T09:02:03.814Z,24.40
2024-03-02T09:04:34.904Z,18.25
2024-03-02T09:07:03.109Z,19.83
2024-03-02T09:09:33.105Z,34.70
2024-03-02T09:12:00.874Z,30.42
2024-03-02T09:14:28.484Z,24.33
2024-03-02T09:16:56.164Z,27.13
2024-03-02T09:19:23.717Z,22.48
2024-03-02T09:21:51.713Z,18.75
2024-03-02T09:24:19.308Z,19.23
2024-03-02T09:26:48.183Z,23.30
2024-03-02T09:29:15.853Z,28.88
2024-03-02T09:31:43.588Z,19.23
2024-03-02T09:34:11.525Z,22.33
2024-03-02T09:36:39.197Z,23.58
2024-03-02T09:39:06.973Z,25.13
2024-03-02T09:41:35.429Z,25.88
2024-03-02T09:44:04.773Z,22.20
2024-03-02T09:46:32.530Z,23.20
2024-03-02T09:49:00.737Z,25.42
2024-03-02T09:51:28.436Z,20.25
2024-03-02T09:54:06.333Z,22.00
2024-03-02T09:56:40.811Z,31.65
2024-03-02T09:59:09.866Z,19.08
2024-03-02T10:01:37.419Z,24.73
2024-03-02T10:04:07.376Z,30.35
2024-03-02T10:06:34.978Z,22.17
2024-03-02T10:09:02.533Z,22.35
2024-03-02T10:11:32.293Z,30.63
2024-03-02T10:14:12.185Z,29.80
2024-03-02T10:16:42.054Z,22.55
2024-03-02T10:19:18.063Z,27.33
2024-03-02T10:21:45.810Z,27.85
2024-03-02T10:24:13.853Z,24.63
2024-03-02T10:26:42.306Z,27.45
2024-03-02T10:29:11.443Z,28.98
2024-03-02T10:31:40.135Z,23.42
2024-03-02T10:34:08.226Z,24.15
2024-03-02T10:36:36.908Z,21.92
2024-03-02T10:39:05.156Z,21.98
2024-03-02T10:41:35.704Z,16.38
2024-03-02T10:44:05.179Z,18.88
2024-03-02T10:46:35.167Z,23.73
2024-03-02T10:49:07.639Z,24.23
2024-03-02T10:51:37.673Z,21.05
2024-03-02T10:54:07.265Z,21.90
2024-03-02T10:56:37.722Z,22.27
2024-03-02T10:59:18.613Z,19.73
2024-03-02T11:01:49.729Z,21.95
2024-03-02T11:04:19.880Z,24.17
2024-03-02T11:06:50.984Z,21.10
2024-03-02T11:09:21.992Z,24.35
2024-03-02T11:11:58.365Z,19.65
2024-03-02T11:14:27.155Z,21.73
2024-03-02T11:16:56.363Z,23.52
2024-03-02T11:19:25.498Z,26.58
2024-03-02T11:21:53.852Z,29.05
2024-03-02T11:24:37.420Z,33.08
2024-03-02T11:27:12.544Z,35.78
2024-03-02T11:29:47.535Z,25.23
2024-03-02T11:32:22.334Z,25.02
2024-03-02T11:34:51.452Z,22.48
2024-03-02T11:37:21.317Z,23.00
2024-03-02T11:39:52.300Z,21.48
2024-03-02T11:42:20.257Z,22.27
2024-03-02T11:44:49.180Z,22.50
2024-03-02T11:47:18.726Z,24.98
2024-03-02T11:49:51.239Z,17.42
2024-03-02T11:52:20.428Z,17.13
2024-03-02T11:54:49.830Z,24.35
2024-03-02T11:57:19.078Z,21.98
2024-03-02T11:59:46.598Z,21.17
2024-03-02T12:02:19.290Z,15.95
2024-03-02T12:04:49.870Z,20.50
2024-03-02T12:07:21.742Z,19.58
2024-03-02T12:09:49.428Z,21.27
2024-03-02T12:12:19.911Z,21.25
2024-03-02T12:14:56.134Z,22.88
2024-03-02T12:17:24.269Z,19.05
2024-03-02T12:19:53.825Z,18.45
2024-03-02T12:24:49.296Z,17.75
2024-03-02T12:27:17.598Z,14.85
2024-03-02T12:29:45.292Z,20.67
2024-03-02T12:32:13.000Z,13.18
2024-03-02T12:34:41.666Z,19.88
2024-03-02T12:37:14.617Z,21.08
2024-03-02T12:39:42.349Z,15.55
2024-03-02T12:42:09.991Z,19.98
2024-03-02T12:44:37.734Z,16.60
2024-03-02T12:47:05.658Z,17.48
2024-03-02T12:49:33.542Z,13.93
2024-03-02T12:52:01.283Z,14.10
2024-03-02T12:54:30.259Z,13.40
2024-03-02T12:56:58.964Z,13.23
2024-03-02T12:59:27.788Z,13.40
2024-03-02T13:01:58.378Z,13.82
2024-03-02T13:04:26.737Z,12.38
2024-03-02T13:06:55.489Z,11.90
2024-03-02T13:09:23.309Z,12.02
2024-03-02T13:11:52.515Z,13.32
2024-03-02T13:14:20.445Z,13.05
2024-03-02T13:16:49.230Z,19.92
2024-03-02T13:19:16.924Z,18.35
2024-03-02T13:21:44.809Z,21.40
2024-03-02T13:24:12.391Z,14.38
2024-03-02T13:26:41.527Z,15.57
2024-03-02T13:29:10.532Z,16.58
2024-03-02T13:31:38.079Z,25.08
2024-03-02T13:34:05.807Z,21.98
2024-03-02T13:36:33.447Z,31.10
2024-03-02T13:39:01.051Z,19.15
2024-03-02T13:41:28.837Z,17.98
2024-03-02T13:43:56.399Z,17.67
2024-03-02T13:46:25.289Z,22.02
2024-03-02T13:48:53.578Z,14.70
2024-03-02T13:51:21.133Z,16.20
2024-03-02T13:53:48.695Z,15.48
2024-03-02T13:56:16.292Z,18.00
2024-03-02T13:58:47.132Z,17.45
2024-03-02T14:01:15.110Z,25.50
2024-03-02T14:03:44.202Z,19.00
2024-03-02T14:06:11.780Z,18.55
2024-03-02T14:08:39.378Z,23.40
2024-03-02T14:11:06.950Z,18.75
2024-03-02T14:13:34.539Z,19.48
2024-03-02T14:16:02.223Z,17.83
2024-03-02T14:18:30.050Z,14.98
2024-03-02T14:20:58.927Z,13.05
2024-03-02T14:23:29.260Z,16.17
2024-03-02T14:25:56.808Z,13.68
2024-03-02T14:28:43.823Z,16.20
2024-03-02T14:31:11.881Z,15.00
2024-03-02T14:33:39.618Z,16.13
2024-03-02T14:36:09.302Z,17.50
2024-03-02T14:38:36.911Z,17.23
2024-03-02T14:41:04.730Z,18.95
2024-03-02T14:43:32.541Z,16.83
2024-03-02T14:46:00.650Z,16.20
2024-03-02T14:48:28.378Z,17.20
2024-03-02T14:50:55.936Z,14.80
2024-03-02T14:53:24.904Z,16.35
2024-03-02T14:55:52.484Z,13.93
2024-03-02T14:58:20.504Z,13.85
2024-03-02T15:00:48.253Z,16.00
2024-03-02T15:03:16.110Z,15.75
2024-03-02T15:05:43.709Z,17.65
2024-03-02T15:08:11.646Z,16.48
2024-03-02T15:10:41.918Z,15.27
2024-03-02T15:13:10.729Z,19.70
2024-03-02T15:15:38.346Z,17.35
2024-03-02T15:18:06.855Z,21.50
2024-03-02T15:20:34.740Z,23.38
2024-03-02T15:23:01.320Z,28.73
2024-03-02T15:25:28.884Z,19.73
2024-03-02T15:27:58.327Z,19.50
2024-03-02T15:30:25.915Z,17.50
2024-03-02T15:32:53.482Z,20.55
2024-03-02T15:35:21.110Z,14.43
2024-03-02T15:37:48.683Z,10.60
2024-03-02T15:40:16.268Z,18.27
2024-03-02T15:42:44.073Z,18.45
2024-03-02T15:45:12.999Z,19.00
2024-03-02T15:47:41.108Z,17.38
2024-03-02T15:50:09.502Z,13.07
2024-03-02T15:52:37.318Z,20.42
2024-03-02T15:55:07.356Z,20.20
2024-03-02T15:57:35.356Z,20.33
2024-03-02T16:00:02.980Z,25.00
2024-03-02T16:02:31.858Z,23.20
2024-03-02T16:04:59.427Z,20.33
2024-03-02T16:07:26.972Z,21.77
2024-03-02T16:09:54.550Z,24.25
2024-03-02T16:12:22.883Z,20.67
2024-03-02T16:14:50.476Z,21.73
2024-03-02T16:17:18.097Z,24.75
2024-03-02T16:19:48.610Z,23.30
2024-03-02T16:22:16.302Z,19.60
2024-03-02T16:24:43.848Z,22.20
2024-03-02T16:27:11.456Z,18.60
2024-03-02T16:29:39.359Z,18.90
2024-03-02T16:32:07.362Z,19.48
2024-03-02T16:34:34.940Z,18.50
2024-03-02T16:37:04.518Z,19.27
2024-03-02T16:39:32.562Z,19.45
2024-03-02T16:42:00.372Z,19.40
2024-03-02T16:44:27.937Z,16.60
2024-03-02T16:46:55.526Z,15.98
2024-03-02T16:49:23.106Z,16.45
2024-03-02T16:51:50.749Z,14.77
2024-03-02T16:54:19.631Z,21.90
2024-03-02T16:56:47.144Z,15.13
2024-03-02T16:59:14.739Z,20.38
2024-03-02T17:01:42.338Z,17.70
2024-03-02T17:04:10.983Z,18.30
2024-03-02T17:06:38.735Z,18.95
2024-03-02T17:09:06.536Z,25.98
2024-03-02T17:11:36.149Z,20.88
2024-03-02T17:14:04.734Z,89.13
2024-03-02T17:16:32.303Z,58.53
2024-03-02T17:19:00.000Z,63.38
2024-03-02T17:21:28.021Z,58.28
2024-03-02T17:23:55.589Z,20.20
2024-03-02T17:26:23.165Z,26.52
2024-03-02T17:28:52.042Z,30.65
2024-03-02T17:31:19.569Z,15.82
2024-03-02T17:33:47.153Z,19.30
2024-03-02T17:36:15.479Z,19.67
2024-03-02T17:38:43.045Z,20.42
2024-03-02T17:41:11.715Z,26.70
2024-03-02T17:43:40.416Z,19.63
2024-03-02T17:46:09.344Z,26.35
2024-03-02T17:48:36.978Z,41.80
2024-03-02T17:51:08.221Z,41.10
2024-03-02T17:53:35.764Z,30.33
2024-03-02T17:56:03.298Z,18.17
2024-03-02T17:58:30.860Z,20.45
2024-03-02T18:00:58.490Z,18.98
2024-03-02T18:03:27.382Z,22.65
2024-03-02T18:05:55.217Z,21.10
2024-03-02T18:08:22.828Z,21.08
2024-03-02T18:10:50.533Z,19.55
2024-03-02T18:13:18.199Z,18.35
2024-03-02T18:15:47.308Z,23.48
2024-03-02T18:18:15.987Z,22.00
2024-03-02T18:20:46.067Z,21.73
2024-03-02T18:23:13.960Z,29.55
2024-03-02T18:25:47.171Z,21.95
2024-03-02T18:28:15.008Z,22.50
2024-03-02T18:30:43.024Z,19.08
2024-03-02T18:33:10.594Z,20.98
2024-03-02T18:35:38.157Z,22.73
2024-03-02T18:38:07.078Z,14.95
2024-03-02T18:40:34.799Z,16.70
2024-03-02T18:43:03.309Z,19.17
2024-03-02T18:45:31.079Z,17.75
2024-03-02T18:48:01.225Z,17.58
2024-03-02T18:50:30.649Z,16.65
2024-03-02T18:52:58.322Z,18.02
2024-03-02T18:55:27.825Z,17.05
2024-03-02T18:57:56.440Z,15.80
2024-03-02T19:00:24.068Z,17.00
2024-03-02T19:02:51.637Z,11.52
2024-03-02T19:05:19.196Z,16.65
2024-03-02T19:07:46.784Z,15.80
2024-03-02T19:10:14.403Z,12.13
2024-03-02T19:12:44.149Z,13.60
2024-03-02T19:17:40.671Z,12.82
2024-03-02T19:20:11.788Z,8.25
2024-03-02T19:25:14.547Z,12.32
2024-03-02T19:27:43.694Z,13.45
2024-03-02T19:30:12.479Z,14.10
2024-03-02T19:32:40.086Z,14.57
2024-03-02T19:35:08.696Z,16.58
2024-03-02T19:37:37.181Z,14.57
2024-03-02T19:40:06.501Z,7.55
2024-03-02T19:42:35.874Z,13.70
2024-03-02T19:45:06.405Z,14.15
2024-03-02T19:47:34.506Z,14.05
2024-03-02T19:50:02.100Z,12.25
2024-03-02T19:52:29.671Z,13.50
2024-03-02T19:54:57.848Z,22.48
2024-03-02T19:57:26.364Z,23.75
2024-03-02T19:59:54.011Z,19.88
2024-03-02T20:02:27.904Z,19.98
2024-03-02T20:04:55.502Z,20.20
2024-03-02T20:07:23.093Z,18.48
2024-03-02T20:09:51.633Z,13.25
2024-03-02T20:12:19.785Z,15.00
2024-03-02T20:14:47.398Z,13.13
2024-03-02T20:17:16.034Z,15.30
2024-03-02T20:19:46.214Z,13.73
2024-03-02T20:22:14.179Z,14.98
2024-03-02T20:24:41.873Z,22.20
2024-03-02T20:27:09.418Z,15.27
2024-03-02T20:29:36.984Z,14.55
2024-03-02T20:32:04.840Z,17.65
2024-03-02T20:34:32.389Z,22.77
2024-03-02T20:37:02.030Z,24.77
2024-03-02T20:39:30.389Z,20.67
2024-03-02T20:41:57.997Z,18.70
2024-03-02T20:44:27.114Z,18.65
2024-03-02T20:46:55.302Z,17.30
2024-03-02T20:49:24.723Z,23.83
2024-03-02T20:51:52.453Z,17.27
2024-03-02T20:54:21.483Z,17.15
2024-03-02T20:56:49.970Z,20.88
2024-03-02T20:59:18.749Z,22.88
2024-03-02T21:01:49.058Z,19.23
2024-03-02T21:04:16.783Z,16.48
2024-03-02T21:06:44.803Z,22.15
2024-03-02T21:09:12.443Z,20.60
2024-03-02T21:11:41.814Z,19.95
2024-03-02T21:14:09.797Z,19.13
2024-03-02T21:16:37.464Z,24.73
2024-03-02T21:19:05.056Z,23.02
2024-03-02T21:21:32.804Z,19.77
2024-03-02T21:23:59.417Z,22.50
2024-03-02T21:26:27.444Z,26.52
2024-03-02T21:28:56.430Z,22.02
2024-03-02T21:31:23.965Z,15.70
2024-03-02T21:33:51.584Z,22.02
2024-03-02T21:36:19.109Z,23.30
2024-03-02T21:38:46.656Z,24.35
2024-03-02T21:41:14.291Z,21.50
2024-03-02T21:43:42.895Z,24.25
2024-03-02T21:46:13.758Z,20.58
2024-03-02T21:48:41.666Z,24.10
2024-03-02T21:51:09.642Z,24.45
2024-03-02T21:53:38.019Z,21.05
2024-03-02T21:56:06.579Z,21.67
2024-03-02T21:58:34.102Z,28.92
2024-03-02T22:01:01.790Z,26.40
2024-03-02T22:03:30.746Z,21.92
2024-03-02T22:05:58.297Z,28.52
2024-03-02T22:08:28.479Z,22.13
2024-03-02T22:10:56.431Z,22.10
2024-03-02T22:13:24.071Z,20.58
2024-03-02T22:15:51.713Z,26.02
2024-03-02T22:18:19.925Z,24.20
2024-03-02T22:20:48.843Z,24.40
2024-03-02T22:23:16.609Z,25.73
2024-03-02T22:25:44.199Z,27.70
2024-03-02T22:28:11.818Z,24.27
2024-03-02T22:30:39.427Z,25.45
2024-03-02T22:33:07.074Z,24.75
2024-03-02T22:35:34.674Z,25.48
2024-03-02T22:38:03.516Z,25.65
2024-03-02T22:40:31.817Z,23.52
2024-03-02T22:42:59.880Z,27.05
2024-03-02T22:45:27.616Z,22.58
2024-03-02T22:47:56.070Z,39.10
2024-03-02T22:50:24.666Z,36.45
2024-03-02T22:52:52.448Z,30.88
2024-03-02T22:55:21.636Z,33.58
2024-03-02T22:57:49.277Z,30.67
2024-03-02T23:00:35.077Z,27.70
2024-03-02T23:03:02.791Z,27.50
2024-03-02T23:05:30.982Z,22.77
2024-03-02T23:07:58.607Z,22.17
2024-03-02T23:10:27.554Z,27.50
2024-03-02T23:12:55.137Z,25.25
2024-03-02T23:15:22.723Z,24.27
2024-03-02T23:17:50.889Z,27.13
2024-03-02T23:20:18.586Z,26.15
2024-03-02T23:22:47.027Z,23.83
2024-03-02T23:25:15.620Z,27.58
2024-03-02T23:27:44.663Z,21.50
2024-03-02T23:30:12.640Z,32.15
2024-03-02T23:32:40.256Z,27.02
2024-03-02T23:35:08.357Z,26.58
2024-03-02T23:37:35.926Z,28.67
2024-03-02T23:40:34.257Z,33.05
2024-03-02T23:43:02.400Z,29.35
2024-03-02T23:45:29.995Z,30.10
2024-03-02T23:47:57.567Z,30.73
2024-03-02T23:50:25.386Z,32.35
2024-03-02T23:52:52.990Z,28.80
2024-03-02T23:55:20.889Z,24.52
2024-03-02T23:57:48.711Z,26.35
